sensor_id;sensor_type;location;lat;lon;timestamp;pressure;altitude;pressure_sealevel;temperature;humidity
2711;BME280;20721;47.402;8.550;2023-02-21T00:00:08;96633;;;9.38;53.71
2711;BME280;20721;47.402;8.550;2023-02-21T00:01:08;96629;;;9.36;53.72
2711;BME280;20721;47.402;8.550;2023-02-21T00:02:09;96623;;;9.35;53.68
2711;BME280;20721;47.402;8.550;2023-02-21T00:03:08;96624;;;9.34;53.67
2711;BME280;20721;47.402;8.550;2023-02-21T00:04:08;96625;;;9.35;53.46
2711;BME280;20721;47.402;8.550;2023-02-21T00:05:08;96626;;;9.36;53.31
2711;BME280;20721;47.402;8.550;2023-02-21T00:06:08;96624;;;9.38;53.35
2711;BME280;20721;47.402;8.550;2023-02-21T00:08:08;96625;;;9.39;53.18
2711;BME280;20721;47.402;8.550;2023-02-21T00:09:08;96624;;;9.40;53.22
2711;BME280;20721;47.402;8.550;2023-02-21T00:11:08;96625;;;9.39;53.19
2711;BME280;20721;47.402;8.550;2023-02-21T00:12:08;96627;;;9.38;53.31
2711;BME280;20721;47.402;8.550;2023-02-21T00:15:09;96628;;;9.33;53.38
2711;BME280;20721;47.402;8.550;2023-02-21T00:16:08;96627;;;9.29;53.45
2711;BME280;20721;47.402;8.550;2023-02-21T00:17:08;96626;;;9.27;53.42
2711;BME280;20721;47.402;8.550;2023-02-21T00:18:08;96626;;;9.23;53.54
2711;BME280;20721;47.402;8.550;2023-02-21T00:19:08;96626;;;9.22;53.60
2711;BME280;20721;47.402;8.550;2023-02-21T00:20:08;96626;;;9.21;53.61
2711;BME280;20721;47.402;8.550;2023-02-21T00:21:08;96624;;;9.18;53.57
2711;BME280;20721;47.402;8.550;2023-02-21T00:22:08;96624;;;9.15;53.64
2711;BME280;20721;47.402;8.550;2023-02-21T00:23:09;96622;;;9.13;53.80
2711;BME280;20721;47.402;8.550;2023-02-21T00:24:11;96622;;;9.12;53.74
2711;BME280;20721;47.402;8.550;2023-02-21T00:25:08;96621;;;9.10;53.72
2711;BME280;20721;47.402;8.550;2023-02-21T00:27:08;96619;;;9.07;53.85
2711;BME280;20721;47.402;8.550;2023-02-21T00:28:08;96618;;;9.04;54.08
2711;BME280;20721;47.402;8.550;2023-02-21T00:30:08;96612;;;9.02;54.02
2711;BME280;20721;47.402;8.550;2023-02-21T00:32:08;96607;;;9.03;53.97
2711;BME280;20721;47.402;8.550;2023-02-21T00:34:08;96606;;;8.99;54.03
2711;BME280;20721;47.402;8.550;2023-02-21T00:35:08;96601;;;8.96;54.00
2711;BME280;20721;47.402;8.550;2023-02-21T00:36:08;96600;;;8.93;54.03
2711;BME280;20721;47.402;8.550;2023-02-21T00:37:08;96597;;;8.88;54.18
2711;BME280;20721;47.402;8.550;2023-02-21T00:38:09;96598;;;8.81;54.39
2711;BME280;20721;47.402;8.550;2023-02-21T00:39:08;96598;;;8.82;54.39
2711;BME280;20721;47.402;8.550;2023-02-21T00:40:10;96595;;;8.80;54.37
2711;BME280;20721;47.402;8.550;2023-02-21T00:41:08;96595;;;8.82;54.32
2711;BME280;20721;47.402;8.550;2023-02-21T00:42:08;96592;;;8.83;54.28
2711;BME280;20721;47.402;8.550;2023-02-21T00:43:08;96590;;;8.85;54.21
2711;BME280;20721;47.402;8.550;2023-02-21T00:44:08;96589;;;8.86;54.33
2711;BME280;20721;47.402;8.550;2023-02-21T00:45:09;96588;;;8.88;54.26
2711;BME280;20721;47.402;8.550;2023-02-21T00:46:08;96590;;;8.89;54.19
2711;BME280;20721;47.402;8.550;2023-02-21T00:47:09;96589;;;8.86;54.27
2711;BME280;20721;47.402;8.550;2023-02-21T00:48:08;96586;;;8.88;54.17
2711;BME280;20721;47.402;8.550;2023-02-21T00:49:08;96586;;;8.89;54.06
2711;BME280;20721;47.402;8.550;2023-02-21T00:50:08;96584;;;8.87;54.33
2711;BME280;20721;47.402;8.550;2023-02-21T00:52:09;96586;;;8.89;54.32
2711;BME280;20721;47.402;8.550;2023-02-21T00:56:08;96589;;;8.91;54.28
2711;BME280;20721;47.402;8.550;2023-02-21T00:57:08;96587;;;8.94;54.24
2711;BME280;20721;47.402;8.550;2023-02-21T00:58:08;96588;;;8.96;54.07
2711;BME280;20721;47.402;8.550;2023-02-21T01:01:08;96586;;;8.98;53.93
2711;BME280;20721;47.402;8.550;2023-02-21T01:02:09;96587;;;8.94;53.96
2711;BME280;20721;47.402;8.550;2023-02-21T01:03:10;96585;;;8.93;54.04
2711;BME280;20721;47.402;8.550;2023-02-21T01:04:08;96587;;;8.89;54.14
2711;BME280;20721;47.402;8.550;2023-02-21T01:05:08;96589;;;8.88;54.09
2711;BME280;20721;47.402;8.550;2023-02-21T01:06:09;96586;;;8.87;54.21
2711;BME280;20721;47.402;8.550;2023-02-21T01:08:08;96585;;;8.86;54.05
2711;BME280;20721;47.402;8.550;2023-02-21T01:09:08;96590;;;8.87;54.19
2711;BME280;20721;47.402;8.550;2023-02-21T01:10:08;96593;;;8.89;54.26
2711;BME280;20721;47.402;8.550;2023-02-21T01:11:13;96595;;;8.91;54.27
2711;BME280;20721;47.402;8.550;2023-02-21T01:12:08;96594;;;8.92;54.37
2711;BME280;20721;47.402;8.550;2023-02-21T01:14:08;96593;;;8.91;54.61
2711;BME280;20721;47.402;8.550;2023-02-21T01:16:09;96588;;;8.92;54.41
2711;BME280;20721;47.402;8.550;2023-02-21T01:17:18;96588;;;8.90;54.31
2711;BME280;20721;47.402;8.550;2023-02-21T01:19:08;96587;;;8.88;54.05
2711;BME280;20721;47.402;8.550;2023-02-21T01:20:09;96584;;;8.85;54.03
2711;BME280;20721;47.402;8.550;2023-02-21T01:21:12;96587;;;8.81;54.15
2711;BME280;20721;47.402;8.550;2023-02-21T01:22:08;96587;;;8.78;54.20
2711;BME280;20721;47.402;8.550;2023-02-21T01:23:08;96587;;;8.75;54.31
2711;BME280;20721;47.402;8.550;2023-02-21T01:24:10;96583;;;8.71;54.42
2711;BME280;20721;47.402;8.550;2023-02-21T01:25:08;96584;;;8.66;54.51
2711;BME280;20721;47.402;8.550;2023-02-21T01:26:08;96583;;;8.63;54.57
2711;BME280;20721;47.402;8.550;2023-02-21T01:27:09;96580;;;8.60;54.53
2711;BME280;20721;47.402;8.550;2023-02-21T01:28:08;96577;;;8.58;54.70
2711;BME280;20721;47.402;8.550;2023-02-21T01:29:09;96575;;;8.55;54.76
2711;BME280;20721;47.402;8.550;2023-02-21T01:30:09;96571;;;8.50;54.83
2711;BME280;20721;47.402;8.550;2023-02-21T01:31:08;96571;;;8.46;54.96
2711;BME280;20721;47.402;8.550;2023-02-21T01:32:09;96573;;;8.42;55.05
2711;BME280;20721;47.402;8.550;2023-02-21T01:33:09;96570;;;8.37;55.26
2711;BME280;20721;47.402;8.550;2023-02-21T01:34:08;96570;;;8.36;55.31
2711;BME280;20721;47.402;8.550;2023-02-21T01:35:08;96572;;;8.37;55.29
2711;BME280;20721;47.402;8.550;2023-02-21T01:37:08;96565;;;8.39;55.17
2711;BME280;20721;47.402;8.550;2023-02-21T01:38:09;96568;;;8.41;55.10
2711;BME280;20721;47.402;8.550;2023-02-21T01:41:08;96564;;;8.36;55.26
2711;BME280;20721;47.402;8.550;2023-02-21T01:42:09;96562;;;8.33;55.41
2711;BME280;20721;47.402;8.550;2023-02-21T01:43:17;96564;;;8.30;55.42
2711;BME280;20721;47.402;8.550;2023-02-21T01:46:10;96556;;;8.32;55.52
2711;BME280;20721;47.402;8.550;2023-02-21T01:47:09;96558;;;8.31;55.46
2711;BME280;20721;47.402;8.550;2023-02-21T01:48:12;96558;;;8.30;55.56
2711;BME280;20721;47.402;8.550;2023-02-21T01:51:09;96559;;;8.29;55.53
2711;BME280;20721;47.402;8.550;2023-02-21T01:53:10;96560;;;8.28;55.56
2711;BME280;20721;47.402;8.550;2023-02-21T01:54:09;96563;;;8.27;55.57
2711;BME280;20721;47.402;8.550;2023-02-21T01:56:08;96560;;;8.28;55.69
2711;BME280;20721;47.402;8.550;2023-02-21T01:57:08;96565;;;8.29;55.74
2711;BME280;20721;47.402;8.550;2023-02-21T01:58:09;96561;;;8.30;55.66
2711;BME280;20721;47.402;8.550;2023-02-21T01:59:08;96562;;;8.29;55.62
2711;BME280;20721;47.402;8.550;2023-02-21T02:00:10;96562;;;8.27;55.66
2711;BME280;20721;47.402;8.550;2023-02-21T02:01:09;96560;;;8.25;55.74
2711;BME280;20721;47.402;8.550;2023-02-21T02:02:11;96562;;;8.26;55.66
2711;BME280;20721;47.402;8.550;2023-02-21T02:03:10;96564;;;8.28;55.58
2711;BME280;20721;47.402;8.550;2023-02-21T02:04:08;96567;;;8.26;55.63
2711;BME280;20721;47.402;8.550;2023-02-21T02:05:09;96566;;;8.23;55.80
2711;BME280;20721;47.402;8.550;2023-02-21T02:09:17;96562;;;8.22;55.75
2711;BME280;20721;47.402;8.550;2023-02-21T02:10:09;96561;;;8.18;55.80
2711;BME280;20721;47.402;8.550;2023-02-21T02:11:13;96563;;;8.16;55.82
2711;BME280;20721;47.402;8.550;2023-02-21T02:14:11;96559;;;8.12;55.96
2711;BME280;20721;47.402;8.550;2023-02-21T02:15:05;96562;;;8.13;55.91
2711;BME280;20721;47.402;8.550;2023-02-21T02:16:04;96562;;;8.14;55.89
2711;BME280;20721;47.402;8.550;2023-02-21T02:18:18;96564;;;8.19;55.89
2711;BME280;20721;47.402;8.550;2023-02-21T02:19:02;96560;;;8.18;55.86
2711;BME280;20721;47.402;8.550;2023-02-21T02:25:09;96557;;;8.04;55.98
2711;BME280;20721;47.402;8.550;2023-02-21T02:29:07;96566;;;8.10;56.04
2711;BME280;20721;47.402;8.550;2023-02-21T02:31:08;96566;;;8.07;56.11
2711;BME280;20721;47.402;8.550;2023-02-21T02:32:07;96566;;;8.06;56.09
2711;BME280;20721;47.402;8.550;2023-02-21T02:33:26;96568;;;8.05;56.06
2711;BME280;20721;47.402;8.550;2023-02-21T02:36:00;96564;;;7.95;56.22
2711;BME280;20721;47.402;8.550;2023-02-21T02:37:03;96563;;;7.93;56.17
2711;BME280;20721;47.402;8.550;2023-02-21T02:38:03;96561;;;7.90;56.45
2711;BME280;20721;47.402;8.550;2023-02-21T02:41:02;96562;;;7.81;56.59
2711;BME280;20721;47.402;8.550;2023-02-21T02:43:02;96556;;;7.80;56.84
2711;BME280;20721;47.402;8.550;2023-02-21T02:44:11;96553;;;7.81;56.86
2711;BME280;20721;47.402;8.550;2023-02-21T02:45:00;96556;;;7.84;56.78
2711;BME280;20721;47.402;8.550;2023-02-21T02:48:04;96556;;;7.88;56.31
2711;BME280;20721;47.402;8.550;2023-02-21T02:49:01;96559;;;7.91;56.29
2711;BME280;20721;47.402;8.550;2023-02-21T02:49:59;96559;;;7.93;56.38
2711;BME280;20721;47.402;8.550;2023-02-21T02:50:59;96559;;;7.96;56.44
2711;BME280;20721;47.402;8.550;2023-02-21T02:52:03;96556;;;7.94;56.10
2711;BME280;20721;47.402;8.550;2023-02-21T02:53:00;96555;;;7.93;56.16
2711;BME280;20721;47.402;8.550;2023-02-21T02:53:59;96558;;;7.90;56.32
2711;BME280;20721;47.402;8.550;2023-02-21T02:55:00;96557;;;7.83;56.79
2711;BME280;20721;47.402;8.550;2023-02-21T02:56:00;96553;;;7.71;57.13
2711;BME280;20721;47.402;8.550;2023-02-21T02:56:59;96552;;;7.70;57.10
2711;BME280;20721;47.402;8.550;2023-02-21T02:57:59;96554;;;7.66;57.40
2711;BME280;20721;47.402;8.550;2023-02-21T02:59:00;96552;;;7.64;57.20
2711;BME280;20721;47.402;8.550;2023-02-21T03:01:07;96554;;;7.65;57.29
2711;BME280;20721;47.402;8.550;2023-02-21T03:07:10;96553;;;7.88;57.29
2711;BME280;20721;47.402;8.550;2023-02-21T03:08:04;96557;;;7.93;57.10
2711;BME280;20721;47.402;8.550;2023-02-21T03:10:03;96555;;;7.92;56.72
2711;BME280;20721;47.402;8.550;2023-02-21T03:11:01;96553;;;7.91;56.64
2711;BME280;20721;47.402;8.550;2023-02-21T03:12:00;96547;;;7.93;56.51
2711;BME280;20721;47.402;8.550;2023-02-21T03:13:04;96549;;;7.96;56.43
2711;BME280;20721;47.402;8.550;2023-02-21T03:15:00;96547;;;7.90;56.62
2711;BME280;20721;47.402;8.550;2023-02-21T03:16:01;96548;;;7.89;56.70
2711;BME280;20721;47.402;8.550;2023-02-21T03:19:01;96543;;;7.91;56.65
2711;BME280;20721;47.402;8.550;2023-02-21T03:22:00;96543;;;7.92;56.76
2711;BME280;20721;47.402;8.550;2023-02-21T03:22:59;96544;;;7.95;56.72
2711;BME280;20721;47.402;8.550;2023-02-21T03:23:59;96538;;;7.96;56.75
2711;BME280;20721;47.402;8.550;2023-02-21T03:24:59;96542;;;7.97;56.68
2711;BME280;20721;47.402;8.550;2023-02-21T03:26:00;96539;;;7.98;56.59
2711;BME280;20721;47.402;8.550;2023-02-21T03:26:59;96541;;;7.97;56.59
2711;BME280;20721;47.402;8.550;2023-02-21T03:27:59;96544;;;7.95;56.46
2711;BME280;20721;47.402;8.550;2023-02-21T03:28:59;96541;;;7.92;56.40
2711;BME280;20721;47.402;8.550;2023-02-21T03:30:00;96544;;;7.93;56.34
2711;BME280;20721;47.402;8.550;2023-02-21T03:30:59;96545;;;7.90;56.39
2711;BME280;20721;47.402;8.550;2023-02-21T03:32:12;96544;;;7.88;56.42
2711;BME280;20721;47.402;8.550;2023-02-21T03:32:59;96546;;;7.85;56.47
2711;BME280;20721;47.402;8.550;2023-02-21T03:33:59;96547;;;7.83;56.67
2711;BME280;20721;47.402;8.550;2023-02-21T03:34:59;96550;;;7.78;56.70
2711;BME280;20721;47.402;8.550;2023-02-21T03:35:59;96548;;;7.72;56.81
2711;BME280;20721;47.402;8.550;2023-02-21T03:36:59;96548;;;7.70;56.90
2711;BME280;20721;47.402;8.550;2023-02-21T03:37:59;96555;;;7.71;57.18
2711;BME280;20721;47.402;8.550;2023-02-21T03:38:59;96551;;;7.72;57.26
2711;BME280;20721;47.402;8.550;2023-02-21T03:40:59;96551;;;7.70;57.43
2711;BME280;20721;47.402;8.550;2023-02-21T03:41:59;96552;;;7.67;57.54
2711;BME280;20721;47.402;8.550;2023-02-21T03:43:00;96548;;;7.66;57.40
2711;BME280;20721;47.402;8.550;2023-02-21T03:43:59;96549;;;7.64;57.51
2711;BME280;20721;47.402;8.550;2023-02-21T03:45:59;96553;;;7.62;57.32
2711;BME280;20721;47.402;8.550;2023-02-21T03:48:59;96550;;;7.59;57.49
2711;BME280;20721;47.402;8.550;2023-02-21T03:49:59;96549;;;7.58;57.59
2711;BME280;20721;47.402;8.550;2023-02-21T03:52:59;96549;;;7.55;57.61
2711;BME280;20721;47.402;8.550;2023-02-21T03:53:59;96551;;;7.54;57.69
2711;BME280;20721;47.402;8.550;2023-02-21T03:54:59;96549;;;7.53;57.74
2711;BME280;20721;47.402;8.550;2023-02-21T03:55:59;96550;;;7.52;57.70
2711;BME280;20721;47.402;8.550;2023-02-21T03:56:59;96547;;;7.49;57.61
2711;BME280;20721;47.402;8.550;2023-02-21T03:57:59;96549;;;7.48;57.57
2711;BME280;20721;47.402;8.550;2023-02-21T03:59:59;96545;;;7.47;57.46
2711;BME280;20721;47.402;8.550;2023-02-21T04:00:59;96547;;;7.46;57.28
2711;BME280;20721;47.402;8.550;2023-02-21T04:01:59;96547;;;7.44;57.31
2711;BME280;20721;47.402;8.550;2023-02-21T04:03:59;96540;;;7.43;57.48
2711;BME280;20721;47.402;8.550;2023-02-21T04:04:59;96542;;;7.44;57.36
2711;BME280;20721;47.402;8.550;2023-02-21T04:05:59;96537;;;7.42;57.26
2711;BME280;20721;47.402;8.550;2023-02-21T04:06:59;96539;;;7.41;57.22
2711;BME280;20721;47.402;8.550;2023-02-21T04:09:59;96540;;;7.42;56.91
2711;BME280;20721;47.402;8.550;2023-02-21T04:11:59;96542;;;7.40;56.80
2711;BME280;20721;47.402;8.550;2023-02-21T04:12:59;96535;;;7.38;56.69
2711;BME280;20721;47.402;8.550;2023-02-21T04:13:59;96535;;;7.37;56.62
2711;BME280;20721;47.402;8.550;2023-02-21T04:14:59;96534;;;7.34;56.65
2711;BME280;20721;47.402;8.550;2023-02-21T04:15:59;96532;;;7.33;56.63
2711;BME280;20721;47.402;8.550;2023-02-21T04:16:59;96529;;;7.28;56.71
2711;BME280;20721;47.402;8.550;2023-02-21T04:17:59;96533;;;7.27;56.83
2711;BME280;20721;47.402;8.550;2023-02-21T04:18:59;96526;;;7.28;56.72
2711;BME280;20721;47.402;8.550;2023-02-21T04:20:59;96529;;;7.30;56.70
2711;BME280;20721;47.402;8.550;2023-02-21T04:21:59;96529;;;7.31;56.71
2711;BME280;20721;47.402;8.550;2023-02-21T04:23:04;96532;;;7.30;56.81
2711;BME280;20721;47.402;8.550;2023-02-21T04:23:59;96531;;;7.33;56.78
2711;BME280;20721;47.402;8.550;2023-02-21T04:24:59;96532;;;7.34;56.67
2711;BME280;20721;47.402;8.550;2023-02-21T04:26:59;96532;;;7.35;56.55
2711;BME280;20721;47.402;8.550;2023-02-21T04:27:59;96533;;;7.34;56.55
2711;BME280;20721;47.402;8.550;2023-02-21T04:28:59;96534;;;7.33;56.61
2711;BME280;20721;47.402;8.550;2023-02-21T04:29:59;96534;;;7.32;56.55
2711;BME280;20721;47.402;8.550;2023-02-21T04:30:59;96533;;;7.29;56.48
2711;BME280;20721;47.402;8.550;2023-02-21T04:31:59;96538;;;7.26;56.53
2711;BME280;20721;47.402;8.550;2023-02-21T04:32:59;96540;;;7.25;56.59
2711;BME280;20721;47.402;8.550;2023-02-21T04:34:59;96542;;;7.24;56.74
2711;BME280;20721;47.402;8.550;2023-02-21T04:36:59;96541;;;7.25;56.90
2711;BME280;20721;47.402;8.550;2023-02-21T04:37:59;96542;;;7.24;56.86
2711;BME280;20721;47.402;8.550;2023-02-21T04:38:59;96538;;;7.23;56.94
2711;BME280;20721;47.402;8.550;2023-02-21T04:40:59;96543;;;7.27;57.03
2711;BME280;20721;47.402;8.550;2023-02-21T04:42:59;96541;;;7.25;57.20
2711;BME280;20721;47.402;8.550;2023-02-21T04:45:00;96544;;;7.27;57.37
2711;BME280;20721;47.402;8.550;2023-02-21T04:45:59;96546;;;7.26;57.31
2711;BME280;20721;47.402;8.550;2023-02-21T04:47:59;96548;;;7.27;57.47
2711;BME280;20721;47.402;8.550;2023-02-21T04:51:09;96551;;;7.29;57.46
2711;BME280;20721;47.402;8.550;2023-02-21T04:51:59;96550;;;7.32;57.39
2711;BME280;20721;47.402;8.550;2023-02-21T04:52:59;96551;;;7.36;57.37
2711;BME280;20721;47.402;8.550;2023-02-21T04:53:59;96552;;;7.38;57.38
2711;BME280;20721;47.402;8.550;2023-02-21T04:54:59;96549;;;7.35;57.14
2711;BME280;20721;47.402;8.550;2023-02-21T04:55:59;96554;;;7.34;57.03
2711;BME280;20721;47.402;8.550;2023-02-21T04:56:59;96553;;;7.31;57.07
2711;BME280;20721;47.402;8.550;2023-02-21T04:59:59;96553;;;7.32;57.08
2711;BME280;20721;47.402;8.550;2023-02-21T05:00:59;96554;;;7.30;57.07
2711;BME280;20721;47.402;8.550;2023-02-21T05:02:04;96551;;;7.29;57.02
2711;BME280;20721;47.402;8.550;2023-02-21T05:02:59;96548;;;7.28;56.99
2711;BME280;20721;47.402;8.550;2023-02-21T05:03:59;96553;;;7.25;57.05
2711;BME280;20721;47.402;8.550;2023-02-21T05:04:59;96549;;;7.23;57.08
2711;BME280;20721;47.402;8.550;2023-02-21T05:05:59;96549;;;7.22;56.98
2711;BME280;20721;47.402;8.550;2023-02-21T05:07:59;96552;;;7.21;56.87
2711;BME280;20721;47.402;8.550;2023-02-21T05:08:59;96552;;;7.20;56.83
2711;BME280;20721;47.402;8.550;2023-02-21T05:09:59;96555;;;7.19;56.88
2711;BME280;20721;47.402;8.550;2023-02-21T05:10:59;96550;;;7.18;56.87
2711;BME280;20721;47.402;8.550;2023-02-21T05:11:59;96549;;;7.15;56.84
2711;BME280;20721;47.402;8.550;2023-02-21T05:12:59;96549;;;7.13;56.87
2711;BME280;20721;47.402;8.550;2023-02-21T05:13:59;96547;;;7.12;56.98
2711;BME280;20721;47.402;8.550;2023-02-21T05:15:59;96551;;;7.11;57.01
2711;BME280;20721;47.402;8.550;2023-02-21T05:16:59;96548;;;7.10;56.88
2711;BME280;20721;47.402;8.550;2023-02-21T05:17:59;96549;;;7.09;56.78
2711;BME280;20721;47.402;8.550;2023-02-21T05:19:01;96548;;;7.08;56.65
2711;BME280;20721;47.402;8.550;2023-02-21T05:19:59;96544;;;7.07;56.61
2711;BME280;20721;47.402;8.550;2023-02-21T05:20:59;96543;;;7.06;56.66
2711;BME280;20721;47.402;8.550;2023-02-21T05:23:59;96538;;;7.05;56.83
2711;BME280;20721;47.402;8.550;2023-02-21T05:24:59;96542;;;7.04;57.13
2711;BME280;20721;47.402;8.550;2023-02-21T05:26:00;96539;;;7.05;57.21
2711;BME280;20721;47.402;8.550;2023-02-21T05:26:59;96539;;;7.07;57.14
2711;BME280;20721;47.402;8.550;2023-02-21T05:27:59;96540;;;7.06;57.04
2711;BME280;20721;47.402;8.550;2023-02-21T05:31:09;96540;;;7.07;57.28
2711;BME280;20721;47.402;8.550;2023-02-21T05:31:59;96537;;;7.06;57.51
2711;BME280;20721;47.402;8.550;2023-02-21T05:32:59;96539;;;7.08;57.55
2711;BME280;20721;47.402;8.550;2023-02-21T05:33:59;96540;;;7.07;57.91
2711;BME280;20721;47.402;8.550;2023-02-21T05:35:59;96537;;;7.05;58.30
2711;BME280;20721;47.402;8.550;2023-02-21T05:36:59;96538;;;7.02;58.31
2711;BME280;20721;47.402;8.550;2023-02-21T05:37:59;96538;;;6.99;58.55
2711;BME280;20721;47.402;8.550;2023-02-21T05:38:59;96535;;;6.95;59.10
2711;BME280;20721;47.402;8.550;2023-02-21T05:39:59;96538;;;6.96;59.09
2711;BME280;20721;47.402;8.550;2023-02-21T05:41:59;96536;;;6.86;59.43
2711;BME280;20721;47.402;8.550;2023-02-21T05:42:59;96535;;;6.81;59.58
2711;BME280;20721;47.402;8.550;2023-02-21T05:44:59;96533;;;6.82;59.46
2711;BME280;20721;47.402;8.550;2023-02-21T05:45:59;96536;;;6.84;59.44
2711;BME280;20721;47.402;8.550;2023-02-21T05:47:01;96534;;;6.89;59.34
2711;BME280;20721;47.402;8.550;2023-02-21T05:48:01;96534;;;6.93;59.39
2711;BME280;20721;47.402;8.550;2023-02-21T05:49:00;96536;;;6.98;59.38
2711;BME280;20721;47.402;8.550;2023-02-21T05:49:59;96539;;;7.05;59.03
2711;BME280;20721;47.402;8.550;2023-02-21T05:50:59;96541;;;7.11;58.94
2711;BME280;20721;47.402;8.550;2023-02-21T05:51:59;96540;;;7.14;58.77
2711;BME280;20721;47.402;8.550;2023-02-21T05:52:59;96543;;;7.18;58.50
2711;BME280;20721;47.402;8.550;2023-02-21T05:53:59;96543;;;7.21;58.22
2711;BME280;20721;47.402;8.550;2023-02-21T05:54:59;96542;;;7.22;57.91
2711;BME280;20721;47.402;8.550;2023-02-21T05:55:59;96540;;;7.20;57.76
2711;BME280;20721;47.402;8.550;2023-02-21T05:59:59;96544;;;7.21;58.45
2711;BME280;20721;47.402;8.550;2023-02-21T06:00:59;96542;;;7.22;58.31
2711;BME280;20721;47.402;8.550;2023-02-21T06:02:59;96541;;;7.21;57.87
2711;BME280;20721;47.402;8.550;2023-02-21T06:03:59;96543;;;7.20;57.62
2711;BME280;20721;47.402;8.550;2023-02-21T06:04:59;96542;;;7.19;57.35
2711;BME280;20721;47.402;8.550;2023-02-21T06:05:59;96539;;;7.15;57.02
2711;BME280;20721;47.402;8.550;2023-02-21T06:06:59;96539;;;7.12;56.97
2711;BME280;20721;47.402;8.550;2023-02-21T06:07:59;96537;;;7.07;56.87
2711;BME280;20721;47.402;8.550;2023-02-21T06:08:59;96537;;;7.05;56.71
2711;BME280;20721;47.402;8.550;2023-02-21T06:09:59;96539;;;7.04;56.68
2711;BME280;20721;47.402;8.550;2023-02-21T06:10:59;96537;;;6.99;56.65
2711;BME280;20721;47.402;8.550;2023-02-21T06:11:59;96539;;;6.98;56.63
2711;BME280;20721;47.402;8.550;2023-02-21T06:12:59;96536;;;6.96;56.72
2711;BME280;20721;47.402;8.550;2023-02-21T06:14:00;96537;;;6.93;56.88
2711;BME280;20721;47.402;8.550;2023-02-21T06:14:59;96539;;;6.87;56.99
2711;BME280;20721;47.402;8.550;2023-02-21T06:15:59;96538;;;6.82;57.16
2711;BME280;20721;47.402;8.550;2023-02-21T06:16:59;96538;;;6.81;57.29
2711;BME280;20721;47.402;8.550;2023-02-21T06:18:59;96540;;;6.79;57.43
2711;BME280;20721;47.402;8.550;2023-02-21T06:19:59;96541;;;6.78;57.32
2711;BME280;20721;47.402;8.550;2023-02-21T06:20:59;96544;;;6.76;57.48
2711;BME280;20721;47.402;8.550;2023-02-21T06:22:59;96544;;;6.75;57.78
2711;BME280;20721;47.402;8.550;2023-02-21T06:24:00;96547;;;6.76;57.61
2711;BME280;20721;47.402;8.550;2023-02-21T06:24:59;96546;;;6.75;57.47
2711;BME280;20721;47.402;8.550;2023-02-21T06:25:59;96549;;;6.78;57.41
2711;BME280;20721;47.402;8.550;2023-02-21T06:27:00;96547;;;6.80;57.31
2711;BME280;20721;47.402;8.550;2023-02-21T06:27:59;96549;;;6.79;57.27
2711;BME280;20721;47.402;8.550;2023-02-21T06:29:00;96552;;;6.80;57.27
2711;BME280;20721;47.402;8.550;2023-02-21T06:31:59;96557;;;6.79;57.12
2711;BME280;20721;47.402;8.550;2023-02-21T06:32:59;96558;;;6.78;57.03
2711;BME280;20721;47.402;8.550;2023-02-21T06:33:59;96558;;;6.76;56.98
2711;BME280;20721;47.402;8.550;2023-02-21T06:34:59;96560;;;6.75;57.03
2711;BME280;20721;47.402;8.550;2023-02-21T06:36:04;96563;;;6.74;56.98
2711;BME280;20721;47.402;8.550;2023-02-21T06:36:59;96562;;;6.72;56.92
2711;BME280;20721;47.402;8.550;2023-02-21T06:37:59;96561;;;6.71;56.91
2711;BME280;20721;47.402;8.550;2023-02-21T06:38:59;96561;;;6.72;56.83
2711;BME280;20721;47.402;8.550;2023-02-21T06:41:00;96562;;;6.75;56.77
2711;BME280;20721;47.402;8.550;2023-02-21T06:45:59;96574;;;6.76;56.43
2711;BME280;20721;47.402;8.550;2023-02-21T06:46:59;96573;;;6.74;56.50
2711;BME280;20721;47.402;8.550;2023-02-21T06:48:59;96569;;;6.75;56.56
2711;BME280;20721;47.402;8.550;2023-02-21T06:49:59;96575;;;6.78;56.53
2711;BME280;20721;47.402;8.550;2023-02-21T06:50:59;96572;;;6.79;56.38
2711;BME280;20721;47.402;8.550;2023-02-21T06:51:59;96572;;;6.78;56.29
2711;BME280;20721;47.402;8.550;2023-02-21T06:52:59;96578;;;6.80;56.31
2711;BME280;20721;47.402;8.550;2023-02-21T06:53:59;96577;;;6.81;56.29
2711;BME280;20721;47.402;8.550;2023-02-21T06:54:59;96577;;;6.82;56.26
2711;BME280;20721;47.402;8.550;2023-02-21T06:57:00;96581;;;6.84;56.22
2711;BME280;20721;47.402;8.550;2023-02-21T06:57:59;96578;;;6.86;56.19
2711;BME280;20721;47.402;8.550;2023-02-21T06:58:59;96584;;;6.89;56.12
2711;BME280;20721;47.402;8.550;2023-02-21T06:59:59;96580;;;6.92;56.02
2711;BME280;20721;47.402;8.550;2023-02-21T07:00:59;96580;;;6.94;55.99
2711;BME280;20721;47.402;8.550;2023-02-21T07:02:01;96580;;;6.98;55.94
2711;BME280;20721;47.402;8.550;2023-02-21T07:03:59;96577;;;7.01;55.83
2711;BME280;20721;47.402;8.550;2023-02-21T07:04:59;96578;;;7.05;55.68
2711;BME280;20721;47.402;8.550;2023-02-21T07:05:59;96582;;;7.10;55.63
2711;BME280;20721;47.402;8.550;2023-02-21T07:06:59;96581;;;7.13;55.59
2711;BME280;20721;47.402;8.550;2023-02-21T07:08:00;96582;;;7.15;55.52
2711;BME280;20721;47.402;8.550;2023-02-21T07:08:59;96584;;;7.18;55.52
2711;BME280;20721;47.402;8.550;2023-02-21T07:09:59;96583;;;7.22;55.40
2711;BME280;20721;47.402;8.550;2023-02-21T07:10:59;96582;;;7.27;55.41
2711;BME280;20721;47.402;8.550;2023-02-21T07:11:59;96587;;;7.32;55.34
2711;BME280;20721;47.402;8.550;2023-02-21T07:12:59;96584;;;7.37;55.14
2711;BME280;20721;47.402;8.550;2023-02-21T07:13:59;96585;;;7.44;55.01
2711;BME280;20721;47.402;8.550;2023-02-21T07:14:59;96586;;;7.50;54.88
2711;BME280;20721;47.402;8.550;2023-02-21T07:16:00;96583;;;7.56;54.77
2711;BME280;20721;47.402;8.550;2023-02-21T07:16:59;96584;;;7.62;54.57
2711;BME280;20721;47.402;8.550;2023-02-21T07:17:59;96586;;;7.68;54.47
2711;BME280;20721;47.402;8.550;2023-02-21T07:18:59;96586;;;7.74;54.31
2711;BME280;20721;47.402;8.550;2023-02-21T07:19:59;96594;;;7.81;54.17
2711;BME280;20721;47.402;8.550;2023-02-21T07:20:59;96597;;;7.90;53.98
2711;BME280;20721;47.402;8.550;2023-02-21T07:21:59;96597;;;7.96;53.85
2711;BME280;20721;47.402;8.550;2023-02-21T07:22:59;96600;;;8.04;53.62
2711;BME280;20721;47.402;8.550;2023-02-21T07:23:59;96601;;;8.12;53.30
2711;BME280;20721;47.402;8.550;2023-02-21T07:24:59;96597;;;8.23;53.09
2711;BME280;20721;47.402;8.550;2023-02-21T07:25:59;96599;;;8.49;52.62
2711;BME280;20721;47.402;8.550;2023-02-21T07:26:59;96602;;;8.98;51.71
2711;BME280;20721;47.402;8.550;2023-02-21T07:28:01;96594;;;9.55;50.70
2711;BME280;20721;47.402;8.550;2023-02-21T07:28:59;96594;;;10.14;49.38